Terminal Aerodrome Forecast
Issued by NWS

Home | Current Version | Previous Version | Text Only | Print | Product List | Glossary Off
Versions: 1 2 3 4 5 6 7 8 9 10 11 12 13 14 15 16 17 18

000
FTUS43 KGRB 162000 AAA
TAFMTW
TAF AMD
KMTW 162056Z 1621/1718 32013G21KT 6SM -SN BR SCT010 OVC022
      TEMPO 1701/1705 2SM -SN BR BKN015
     FM170500 30012KT P6SM -SN SCT020 OVC028
     FM171400 30015G22KT P6SM SCT020 BKN035=

USA.gov is the U.S. government's official web portal to all federal, state and local government web resources and services.